Time;durP1;ratioP1;P1;durP2;ratioP2;P2;SDS_P1;SDS_P2;PMS_P1;PMS_P2;Temp;Humidity;BMP_temperature;BMP_pressure;BME280_temperature;BME280_humidity;BME280_pressure;Samples;Min_cycle;Max_cycle;Signal;HPM_P1;HPM_P2
2023/03/12 00:00:52;;;;;;;4.78;2.70;;;0.50;94.80;;;;;;2078044;28;20259;-64
2023/03/12 00:01:58;;;;;;;6.07;2.50;;;0.50;94.90;;;;;;2077939;28;20188;-64
2023/03/12 00:03:03;;;;;;;5.15;2.50;;;0.50;94.70;;;;;;2078601;28;20186;-65
2023/03/12 00:04:08;;;;;;;4.45;2.95;;;0.70;94.60;;;;;;2078751;28;20182;-64
2023/03/12 00:05:14;;;;;;;6.15;2.70;;;0.70;94.00;;;;;;2078076;28;20561;-64
2023/03/12 00:06:21;;;;;;;5.95;2.95;;;0.80;93.70;;;;;;2078070;28;20189;-64
2023/03/12 00:07:26;;;;;;;5.22;2.97;;;0.90;93.70;;;;;;2073262;28;20239;-64
2023/03/12 00:08:32;;;;;;;3.60;2.25;;;0.80;93.60;;;;;;2076793;28;20196;-64
2023/03/12 00:09:38;;;;;;;4.30;2.60;;;0.80;93.70;;;;;;2077408;28;20293;-65
2023/03/12 00:10:44;;;;;;;6.28;2.50;;;0.80;94.10;;;;;;2074425;28;20189;-65
2023/03/12 00:11:50;;;;;;;5.78;2.83;;;0.90;93.30;;;;;;2076746;28;20197;-64
2023/03/12 00:12:56;;;;;;;4.22;2.60;;;0.90;93.20;;;;;;2077184;28;20228;-64
2023/03/12 00:14:02;;;;;;;5.85;2.95;;;0.90;93.20;;;;;;2077291;28;20632;-64
2023/03/12 00:15:07;;;;;;;6.28;2.97;;;0.90;93.00;;;;;;2067531;28;20194;-70
2023/03/12 00:16:14;;;;;;;5.65;2.58;;;1.00;92.90;;;;;;2073212;28;20212;-65
2023/03/12 00:17:20;;;;;;;3.88;2.63;;;1.00;92.90;;;;;;2077287;28;20181;-65
2023/03/12 00:18:25;;;;;;;4.45;2.80;;;1.10;93.20;;;;;;2077238;28;20186;-64
2023/03/12 00:19:31;;;;;;;3.80;2.40;;;1.10;93.00;;;;;;2074162;28;20217;-65
2023/03/12 00:20:37;;;;;;;6.40;2.60;;;1.10;93.00;;;;;;2077367;28;20180;-65
2023/03/12 00:21:42;;;;;;;6.40;2.90;;;1.00;92.40;;;;;;2077413;28;20194;-65
2023/03/12 00:22:49;;;;;;;4.93;2.95;;;1.00;92.30;;;;;;2078049;28;20196;-65
2023/03/12 00:23:55;;;;;;;7.00;2.50;;;1.00;92.60;;;;;;2077269;28;20232;-65
2023/03/12 00:25:01;;;;;;;4.50;2.30;;;1.00;93.10;;;;;;2073120;28;20188;-65
2023/03/12 00:26:08;;;;;;;6.18;2.40;;;0.80;93.30;;;;;;2077190;28;20536;-64
2023/03/12 00:27:13;;;;;;;5.82;2.90;;;0.80;93.50;;;;;;2076823;28;20258;-64
2023/03/12 00:28:19;;;;;;;4.57;2.25;;;0.80;93.60;;;;;;2066472;28;20186;-65
2023/03/12 00:29:25;;;;;;;6.85;2.65;;;0.80;93.80;;;;;;2076852;28;20193;-65
2023/03/12 00:30:31;;;;;;;7.03;2.70;;;0.80;93.70;;;;;;2076578;28;20201;-64
2023/03/12 00:31:36;;;;;;;4.40;2.72;;;0.80;93.40;;;;;;2075749;28;20231;-65
2023/03/12 00:32:42;;;;;;;4.88;2.72;;;0.80;93.40;;;;;;2078391;28;20204;-65
2023/03/12 00:33:49;;;;;;;6.32;2.88;;;0.70;93.40;;;;;;2078015;28;20227;-64
2023/03/12 00:34:55;;;;;;;4.85;2.60;;;0.80;93.60;;;;;;2077811;28;20189;-65
2023/03/12 00:36:00;;;;;;;4.72;2.20;;;0.70;93.50;;;;;;2075619;28;20185;-63
2023/03/12 00:37:04;;;;;;;7.95;2.45;;;0.70;93.60;;;;;;2075292;28;20849;-65
2023/03/12 00:38:09;;;;;;;4.53;2.35;;;0.70;93.80;;;;;;2078890;28;20260;-64
2023/03/12 00:39:15;;;;;;;4.50;2.50;;;0.70;94.10;;;;;;2077250;28;20216;-65
2023/03/12 00:40:20;;;;;;;5.60;3.22;;;0.70;94.10;;;;;;2073971;28;20203;-65
2023/03/12 00:41:27;;;;;;;6.25;2.40;;;0.60;94.10;;;;;;2077265;28;20323;-64
2023/03/12 00:42:33;;;;;;;4.70;2.50;;;0.60;94.30;;;;;;2077293;28;20319;-65
2023/03/12 00:43:39;;;;;;;3.60;2.50;;;0.60;94.40;;;;;;2077815;28;20231;-65
2023/03/12 00:44:45;;;;;;;4.55;2.20;;;0.50;94.40;;;;;;2077769;28;20267;-65
2023/03/12 00:45:51;;;;;;;3.75;2.17;;;0.50;94.60;;;;;;2073461;28;20243;-65
2023/03/12 00:46:56;;;;;;;4.22;2.50;;;0.40;95.00;;;;;;2076997;28;20200;-65
2023/03/12 00:48:02;;;;;;;4.00;2.17;;;0.40;95.20;;;;;;2077123;28;20182;-64
2023/03/12 00:49:03;;;;;;;5.45;2.55;;;0.30;95.50;;;;;;2077390;28;20181;-65
2023/03/12 00:50:09;;;;;;;3.53;2.22;;;0.20;95.60;;;;;;2077884;28;20193;-65
2023/03/12 00:51:15;;;;;;;4.25;2.67;;;0.20;96.30;;;;;;2077688;28;20224;-69
2023/03/12 00:52:21;;;;;;;5.20;2.22;;;0.20;95.80;;;;;;2073620;28;20226;-65
2023/03/12 00:53:26;;;;;;;4.53;1.83;;;0.20;95.70;;;;;;2077000;28;20185;-64
2023/03/12 00:54:32;;;;;;;4.10;2.20;;;0.20;95.60;;;;;;2077106;28;20240;-64
2023/03/12 00:55:38;;;;;;;5.10;2.28;;;0.20;95.50;;;;;;2073038;28;20625;-65
2023/03/12 00:56:45;;;;;;;5.25;2.40;;;0.20;95.40;;;;;;2076885;28;20248;-65
2023/03/12 00:57:51;;;;;;;5.22;2.72;;;0.20;95.70;;;;;;2077094;28;20555;-65
2023/03/12 00:58:56;;;;;;;6.07;2.60;;;0.10;96.20;;;;;;2079384;28;20189;-64
2023/03/12 01:00:09;;;;;;;3.78;2.10;;;0.10;96.50;;;;;;2077056;28;20196;-65
2023/03/12 01:01:14;;;;;;;3.95;2.42;;;0.00;96.80;;;;;;2074353;28;20180;-63
2023/03/12 01:02:20;;;;;;;4.30;2.63;;;-0.30;97.40;;;;;;2076817;28;20204;-64
2023/03/12 01:03:26;;;;;;;4.60;2.80;;;-0.20;97.90;;;;;;2073606;28;20188;-64
2023/03/12 01:04:32;;;;;;;6.75;2.67;;;-0.30;98.10;;;;;;2076899;28;20185;-64
2023/03/12 01:05:39;;;;;;;6.70;2.70;;;-0.40;98.50;;;;;;2077397;28;20181;-64
2023/03/12 01:06:45;;;;;;;5.20;2.72;;;-0.30;98.90;;;;;;2077635;28;20186;-63
2023/03/12 01:07:51;;;;;;;4.07;2.40;;;-0.30;99.10;;;;;;2077451;28;20195;-64
2023/03/12 01:08:57;;;;;;;6.47;2.90;;;-0.40;99.30;;;;;;2077389;28;20208;-64
2023/03/12 01:10:04;;;;;;;3.78;2.60;;;-0.40;99.40;;;;;;2077341;28;20725;-64
2023/03/12 01:11:17;;;;;;;4.30;2.65;;;-0.40;99.50;;;;;;2073357;28;20576;-64
2023/03/12 01:12:23;;;;;;;5.05;2.65;;;-0.40;99.50;;;;;;2076729;28;20247;-63
2023/03/12 01:13:29;;;;;;;6.40;2.40;;;-0.30;99.50;;;;;;2068315;28;20527;-64
2023/03/12 01:14:35;;;;;;;5.90;3.33;;;-0.30;99.40;;;;;;2075296;28;20193;-64
2023/03/12 01:15:40;;;;;;;4.15;2.28;;;-0.30;99.70;;;;;;2077208;28;20209;-62
2023/03/12 01:16:46;;;;;;;5.80;2.63;;;-0.30;99.90;;;;;;2077564;28;20210;-64
2023/03/12 01:17:52;;;;;;;6.85;3.20;;;-0.40;99.90;;;;;;2077273;28;20207;-65
2023/03/12 01:19:00;;;;;;;5.80;2.60;;;-0.40;99.90;;;;;;2073906;28;20189;-63
2023/03/12 01:20:04;;;;;;;3.75;2.38;;;-0.50;99.90;;;;;;2076666;28;20212;-64
2023/03/12 01:21:09;;;;;;;7.25;2.65;;;-0.50;99.90;;;;;;2077326;28;20244;-67
2023/03/12 01:22:15;;;;;;;3.70;2.45;;;-0.50;99.90;;;;;;2077404;28;20867;-63
2023/03/12 01:23:20;;;;;;;3.75;2.33;;;-0.50;99.90;;;;;;2077726;28;20548;-64
2023/03/12 01:24:26;;;;;;;3.58;2.45;;;-0.50;99.90;;;;;;2076768;28;20203;-64
2023/03/12 01:25:33;;;;;;;4.68;2.53;;;-0.50;99.90;;;;;;2076915;28;20194;-63
2023/03/12 01:26:39;;;;;;;5.13;2.45;;;-0.50;99.90;;;;;;2073156;28;20200;-63
2023/03/12 01:27:45;;;;;;;4.47;2.75;;;-0.50;99.90;;;;;;2076609;28;20197;-64
2023/03/12 01:28:50;;;;;;;5.07;2.47;;;-0.40;99.90;;;;;;2076841;28;20202;-64
2023/03/12 01:29:56;;;;;;;5.50;2.40;;;-0.40;99.90;;;;;;2077558;28;20189;-64
2023/03/12 01:31:15;;;;;;;3.90;2.63;;;-0.40;99.90;;;;;;2077433;28;20580;-64
2023/03/12 01:32:20;;;;;;;3.10;2.30;;;-0.40;99.90;;;;;;2074913;28;20224;-64
2023/03/12 01:33:26;;;;;;;4.72;2.35;;;-0.40;99.90;;;;;;2076597;28;20204;-64
2023/03/12 01:34:34;;;;;;;5.13;2.50;;;-0.40;99.90;;;;;;2076969;28;20206;-64
2023/03/12 01:35:39;;;;;;;3.47;2.55;;;-0.40;99.90;;;;;;2077428;28;20196;-64
2023/03/12 01:36:45;;;;;;;5.72;2.17;;;-0.40;99.90;;;;;;2080913;28;20215;-64
2023/03/12 01:37:51;;;;;;;3.58;2.25;;;-0.40;99.90;;;;;;2082969;28;20193;-64
2023/03/12 01:38:58;;;;;;;6.00;2.53;;;-0.40;99.90;;;;;;2072980;28;20189;-64
2023/03/12 01:40:03;;;;;;;6.28;2.25;;;-0.50;99.90;;;;;;2076716;28;20189;-63
2023/03/12 01:41:04;;;;;;;6.82;2.40;;;-0.60;99.90;;;;;;2076505;28;20192;-66
2023/03/12 01:42:09;;;;;;;4.18;1.95;;;-0.60;99.90;;;;;;2072953;28;20692;-63
2023/03/12 01:43:32;;;;;;;4.53;2.50;;;-0.60;99.90;;;;;;2076697;28;20188;-64
2023/03/12 01:44:58;;;;;;;6.35;2.13;;;-0.50;99.90;;;;;;2073929;28;20615;-62
2023/03/12 01:46:32;;;;;;;5.80;2.85;;;-0.60;99.90;;;;;;2074387;28;20200;-63
2023/03/12 01:47:38;;;;;;;3.47;2.55;;;-0.60;99.90;;;;;;2072496;28;20233;-63
2023/03/12 01:49:09;;;;;;;4.22;2.33;;;-0.60;99.90;;;;;;2076271;28;20247;-63
2023/03/12 01:50:15;;;;;;;3.63;2.20;;;-0.60;99.90;;;;;;2074673;28;20204;-66
2023/03/12 01:51:24;;;;;;;3.17;1.90;;;-0.60;99.90;;;;;;2076634;28;20188;-63
2023/03/12 01:52:32;;;;;;;4.22;2.55;;;-0.60;99.90;;;;;;2076007;28;20213;-63
2023/03/12 01:53:39;;;;;;;8.98;2.33;;;-0.60;99.90;;;;;;2066759;28;20268;-64
2023/03/12 01:54:53;;;;;;;6.20;2.33;;;-0.70;99.90;;;;;;2069436;28;20341;-64
2023/03/12 01:55:57;;;;;;;4.25;2.10;;;-0.60;99.90;;;;;;2073218;28;20193;-64
2023/03/12 01:57:03;;;;;;;3.97;2.20;;;-0.60;99.90;;;;;;2076591;28;20181;-64
2023/03/12 01:58:06;;;;;;;4.28;2.17;;;-0.60;99.90;;;;;;2072876;28;20195;-64
2023/03/12 01:59:19;;;;;;;4.38;2.10;;;-0.60;99.90;;;;;;2076566;28;20192;-64
2023/03/12 02:00:26;;;;;;;4.05;2.20;;;-0.60;99.90;;;;;;2076347;28;20274;-64
2023/03/12 02:01:30;;;;;;;6.20;2.50;;;-0.60;99.90;;;;;;2077008;28;20668;-64
2023/03/12 02:02:36;;;;;;;2.63;2.20;;;-0.60;99.90;;;;;;2082696;28;20215;-64
2023/03/12 02:03:41;;;;;;;4.38;1.98;;;-0.70;99.90;;;;;;2078776;28;20251;-64
2023/03/12 02:04:46;;;;;;;5.55;2.25;;;-0.60;99.90;;;;;;2069790;28;20198;-64
2023/03/12 02:06:01;;;;;;;7.30;2.35;;;-0.50;99.90;;;;;;2069829;28;20182;-64
2023/03/12 02:07:13;;;;;;;3.33;2.08;;;-0.50;99.90;;;;;;2071787;28;20194;-64
2023/03/12 02:08:19;;;;;;;3.08;2.22;;;-0.40;99.90;;;;;;2078164;28;20180;-64
2023/03/12 02:09:25;;;;;;;6.78;2.20;;;-0.30;99.90;;;;;;2060170;28;20179;-64
2023/03/12 02:10:31;;;;;;;2.92;2.17;;;-0.30;99.90;;;;;;2077061;28;20254;-64
2023/03/12 02:11:37;;;;;;;4.47;2.22;;;-0.20;99.90;;;;;;2087508;28;20211;-64
2023/03/12 02:12:43;;;;;;;3.30;2.10;;;-0.10;99.90;;;;;;2078987;28;20201;-63
2023/03/12 02:13:48;;;;;;;4.57;2.10;;;0.00;99.90;;;;;;2069381;28;20194;-64
2023/03/12 02:14:54;;;;;;;3.78;2.03;;;0.10;99.90;;;;;;2067697;28;20575;-64
2023/03/12 02:16:00;;;;;;;3.17;2.25;;;0.20;99.90;;;;;;2078299;28;20203;-63
2023/03/12 02:17:07;;;;;;;4.22;2.15;;;0.20;99.90;;;;;;2080204;28;20231;-64
2023/03/12 02:18:17;;;;;;;2.67;1.75;;;0.30;99.90;;;;;;2079917;28;20251;-64
2023/03/12 02:19:56;;;;;;;4.85;2.30;;;0.30;99.90;;;;;;2080363;28;20189;-64
2023/03/12 02:21:25;;;;;;;4.47;2.40;;;0.30;99.90;;;;;;2085373;28;20212;-63
2023/03/12 02:22:31;;;;;;;5.32;2.10;;;0.40;99.90;;;;;;2077740;28;20236;-64
2023/03/12 02:23:48;;;;;;;4.93;2.08;;;0.30;99.90;;;;;;2080723;28;20192;-63
2023/03/12 02:25:30;;;;;;;2.53;1.73;;;0.40;99.90;;;;;;2077975;28;20194;-64
2023/03/12 02:26:38;;;;;;;3.55;2.10;;;0.40;99.90;;;;;;2064476;28;20231;-64
2023/03/12 02:27:44;;;;;;;4.60;2.10;;;0.40;99.90;;;;;;2069511;28;20201;-64
2023/03/12 02:28:51;;;;;;;3.88;2.10;;;0.50;99.90;;;;;;2066173;28;20284;-63
2023/03/12 02:29:58;;;;;;;5.53;2.60;;;0.60;99.90;;;;;;2072875;28;20202;-64
2023/03/12 02:31:06;;;;;;;3.13;1.85;;;0.60;99.90;;;;;;2076354;28;20192;-63
2023/03/12 02:32:34;;;;;;;4.05;2.17;;;0.70;99.60;;;;;;2076868;28;20645;-64
2023/03/12 02:33:40;;;;;;;3.72;2.40;;;0.70;99.60;;;;;;2075770;28;20267;-64
2023/03/12 02:34:46;;;;;;;3.67;2.13;;;0.90;98.80;;;;;;2076230;28;20204;-64
2023/03/12 02:35:53;;;;;;;3.83;2.00;;;0.90;98.50;;;;;;2072758;28;20727;-64
2023/03/12 02:36:58;;;;;;;5.03;2.05;;;0.90;98.00;;;;;;2074363;28;20185;-64
2023/03/12 02:38:44;;;;;;;3.72;1.90;;;0.90;97.80;;;;;;2076405;28;20207;-64
2023/03/12 02:40:17;;;;;;;2.53;1.88;;;0.90;97.60;;;;;;2072569;28;20200;-64
2023/03/12 02:41:26;;;;;;;4.40;1.90;;;1.00;98.00;;;;;;2072782;28;20201;-63
2023/03/12 02:42:32;;;;;;;4.40;1.90;;;1.00;98.10;;;;;;2076184;28;20212;-64
2023/03/12 02:43:40;;;;;;;3.55;1.92;;;1.00;98.00;;;;;;2076188;28;20602;-64
2023/03/12 02:44:45;;;;;;;2.58;1.90;;;1.10;97.80;;;;;;2076442;28;20296;-64
2023/03/12 02:45:51;;;;;;;4.22;2.03;;;1.10;97.30;;;;;;2073263;28;20192;-64
2023/03/12 02:47:00;;;;;;;5.63;2.40;;;1.10;96.90;;;;;;2076101;28;20180;-64
2023/03/12 02:48:08;;;;;;;2.58;1.55;;;1.10;97.00;;;;;;2075779;28;20263;-64
2023/03/12 02:49:12;;;;;;;4.07;2.10;;;1.10;97.00;;;;;;2076877;28;20195;-64
2023/03/12 02:50:18;;;;;;;3.78;2.10;;;1.10;96.70;;;;;;2072788;28;20259;-64
2023/03/12 02:51:23;;;;;;;3.22;1.92;;;1.20;96.50;;;;;;2076029;28;20558;-64
2023/03/12 02:52:34;;;;;;;3.92;1.85;;;1.10;96.80;;;;;;2076073;28;20208;-65
2023/03/12 02:53:40;;;;;;;3.55;1.90;;;1.10;96.90;;;;;;2079452;28;20575;-64
2023/03/12 02:54:45;;;;;;;2.35;1.73;;;1.20;96.80;;;;;;2077254;28;20213;-64
2023/03/12 02:55:50;;;;;;;4.82;2.10;;;1.20;96.70;;;;;;2076934;28;20196;-64
2023/03/12 02:56:56;;;;;;;2.45;1.98;;;1.20;96.80;;;;;;2073122;28;20247;-65
2023/03/12 02:58:01;;;;;;;4.05;2.00;;;1.20;96.90;;;;;;2075948;28;20666;-64
2023/03/12 02:59:05;;;;;;;3.80;1.90;;;1.20;97.10;;;;;;2076295;28;20190;-64
2023/03/12 03:00:13;;;;;;;3.13;2.05;;;1.10;97.30;;;;;;2072233;28;20562;-65
2023/03/12 03:01:19;;;;;;;3.78;2.00;;;1.10;97.70;;;;;;2069237;28;20194;-63
2023/03/12 03:02:24;;;;;;;2.78;1.90;;;1.20;98.00;;;;;;2071749;28;20205;-64
2023/03/12 03:03:30;;;;;;;4.15;2.13;;;1.20;98.80;;;;;;2075788;28;20181;-64
2023/03/12 03:04:35;;;;;;;3.70;2.00;;;1.20;99.10;;;;;;2076787;28;20177;-64
2023/03/12 03:05:41;;;;;;;4.43;2.00;;;1.20;99.20;;;;;;2073633;28;20191;-63
2023/03/12 03:06:47;;;;;;;4.32;2.30;;;1.20;99.10;;;;;;2076460;28;20617;-64
2023/03/12 03:07:53;;;;;;;4.57;1.90;;;1.20;99.30;;;;;;2076792;28;20860;-64
2023/03/12 03:08:58;;;;;;;3.90;2.22;;;1.10;99.90;;;;;;2077183;28;20263;-64
2023/03/12 03:10:05;;;;;;;3.38;1.98;;;1.10;99.90;;;;;;2077267;28;20242;-63
2023/03/12 03:11:10;;;;;;;3.33;2.20;;;1.00;99.90;;;;;;2075919;28;20194;-64
2023/03/12 03:12:15;;;;;;;3.60;2.00;;;0.90;99.80;;;;;;2075782;28;20222;-64
2023/03/12 03:13:20;;;;;;;3.50;2.30;;;0.80;99.90;;;;;;2076282;28;20189;-64
2023/03/12 03:14:26;;;;;;;5.13;2.45;;;0.80;99.90;;;;;;2072111;28;20200;-63
2023/03/12 03:15:31;;;;;;;2.88;2.00;;;0.70;99.90;;;;;;2075550;28;20201;-63
2023/03/12 03:16:37;;;;;;;4.55;2.60;;;0.70;99.90;;;;;;2076072;28;20218;-64
2023/03/12 03:17:42;;;;;;;3.40;2.17;;;0.70;99.90;;;;;;2076557;28;20256;-64
2023/03/12 03:18:48;;;;;;;5.40;2.25;;;0.70;99.90;;;;;;2076828;28;20198;-64
2023/03/12 03:19:54;;;;;;;4.53;2.58;;;0.60;99.90;;;;;;2075988;28;20242;-64
2023/03/12 03:21:06;;;;;;;3.72;2.05;;;0.70;99.90;;;;;;2073755;28;20186;-64
2023/03/12 03:22:09;;;;;;;4.55;2.15;;;0.70;99.90;;;;;;2069055;28;20297;-64
2023/03/12 03:23:14;;;;;;;3.22;1.70;;;0.70;99.90;;;;;;2073245;28;20188;-64
2023/03/12 03:24:20;;;;;;;4.25;2.15;;;0.70;99.90;;;;;;2075279;28;20670;-64
2023/03/12 03:25:22;;;;;;;3.83;2.17;;;0.70;99.90;;;;;;2077635;28;20697;-64
2023/03/12 03:26:27;;;;;;;3.10;2.10;;;0.60;99.90;;;;;;2074633;28;20189;-63
2023/03/12 03:27:33;;;;;;;3.75;2.20;;;0.50;99.90;;;;;;2077563;28;20189;-61
2023/03/12 03:28:38;;;;;;;3.13;1.98;;;0.50;99.90;;;;;;2077890;28;20198;-64
2023/03/12 03:29:45;;;;;;;3.80;1.92;;;0.50;99.90;;;;;;2078349;28;20207;-64
2023/03/12 03:30:56;;;;;;;2.67;2.00;;;0.40;99.90;;;;;;2078283;28;20623;-64
2023/03/12 03:31:58;;;;;;;5.97;2.25;;;0.30;99.90;;;;;;2074011;28;20197;-63
2023/03/12 03:33:04;;;;;;;4.05;2.15;;;0.30;99.90;;;;;;2077010;28;20185;-64
2023/03/12 03:34:04;;;;;;;3.17;2.40;;;0.30;99.90;;;;;;2077678;28;20243;-64
2023/03/12 03:35:10;;;;;;;3.13;2.30;;;0.30;99.90;;;;;;2074209;28;20185;-63
2023/03/12 03:36:15;;;;;;;6.07;2.50;;;0.30;99.90;;;;;;2077971;28;20670;-63
2023/03/12 03:37:20;;;;;;;3.25;1.90;;;0.30;99.90;;;;;;2077638;28;20235;-63
2023/03/12 03:38:28;;;;;;;2.97;1.90;;;0.40;99.90;;;;;;2075607;28;20200;-63
2023/03/12 03:39:33;;;;;;;4.60;1.88;;;0.40;99.90;;;;;;2073111;28;20193;-63
2023/03/12 03:40:39;;;;;;;5.28;2.33;;;0.50;99.90;;;;;;2069578;28;20188;-64
2023/03/12 03:41:46;;;;;;;4.07;2.20;;;0.60;99.90;;;;;;2077527;28;20200;-64
2023/03/12 03:42:51;;;;;;;2.88;1.90;;;0.70;99.90;;;;;;2076840;28;20717;-64
2023/03/12 03:43:58;;;;;;;3.05;2.00;;;0.80;99.90;;;;;;2074049;28;20184;-64
2023/03/12 03:45:05;;;;;;;3.22;2.33;;;0.80;99.90;;;;;;2075639;28;20186;-64
2023/03/12 03:46:11;;;;;;;4.72;2.20;;;0.80;99.90;;;;;;2078172;28;20185;-64
2023/03/12 03:47:14;;;;;;;3.10;1.80;;;0.90;99.90;;;;;;2073247;28;20724;-64
2023/03/12 03:48:19;;;;;;;3.42;2.15;;;0.90;99.90;;;;;;2076929;28;20363;-64
2023/03/12 03:49:21;;;;;;;3.95;2.10;;;1.00;99.90;;;;;;2077464;28;20200;-64
2023/03/12 03:50:26;;;;;;;3.40;2.13;;;1.00;99.90;;;;;;2077743;28;20260;-64
2023/03/12 03:51:32;;;;;;;3.22;2.20;;;1.10;99.90;;;;;;2078023;28;20185;-65
2023/03/12 03:52:37;;;;;;;3.28;1.77;;;1.20;99.90;;;;;;2078195;28;20220;-64
2023/03/12 03:53:43;;;;;;;2.60;1.90;;;1.30;99.90;;;;;;2077760;28;20612;-64
2023/03/12 03:54:48;;;;;;;2.70;1.80;;;1.40;99.90;;;;;;2077608;28;20208;-63
2023/03/12 03:55:54;;;;;;;3.58;1.70;;;1.40;99.90;;;;;;2077438;28;20178;-64
2023/03/12 03:56:59;;;;;;;2.92;1.70;;;1.40;99.90;;;;;;2077820;28;20190;-64
2023/03/12 03:58:06;;;;;;;37.67;18.88;;;1.50;99.90;;;;;;2077722;28;20572;-64
2023/03/12 03:59:10;;;;;;;17.25;8.98;;;1.50;99.90;;;;;;2078103;28;20198;-64
2023/03/12 04:00:16;;;;;;;17.30;9.57;;;1.40;99.90;;;;;;2080946;28;20196;-63
2023/03/12 04:01:18;;;;;;;34.13;17.10;;;1.30;99.90;;;;;;2081522;28;20208;-64
2023/03/12 04:02:24;;;;;;;25.80;13.85;;;1.40;99.90;;;;;;2077707;28;20227;-65
2023/03/12 04:03:29;;;;;;;11.50;5.80;;;1.40;99.90;;;;;;2068896;28;20272;-64
2023/03/12 04:04:34;;;;;;;8.82;4.95;;;1.30;99.90;;;;;;2059803;28;20281;-65
2023/03/12 04:05:43;;;;;;;7.40;4.38;;;1.30;99.90;;;;;;2076945;28;20182;-64
2023/03/12 04:06:45;;;;;;;3.70;2.00;;;1.40;99.90;;;;;;2077686;28;20201;-64
2023/03/12 04:07:54;;;;;;;7.57;2.92;;;1.50;99.90;;;;;;2074001;28;20189;-63
2023/03/12 04:08:59;;;;;;;4.63;2.40;;;1.50;99.90;;;;;;2076890;28;20321;-63
2023/03/12 04:10:05;;;;;;;6.53;3.45;;;1.50;99.90;;;;;;2077121;28;20351;-64
2023/03/12 04:11:19;;;;;;;2.10;1.20;;;1.60;99.90;;;;;;2078067;28;20681;-64
2023/03/12 04:12:24;;;;;;;2.72;1.70;;;1.90;99.90;;;;;;2077348;28;20557;-64
2023/03/12 04:13:27;;;;;;;2.58;1.50;;;1.90;99.90;;;;;;2076922;28;20181;-64
2023/03/12 04:14:32;;;;;;;1.98;1.48;;;1.90;99.90;;;;;;2077477;28;20202;-64
2023/03/12 04:15:38;;;;;;;4.60;2.45;;;1.90;99.90;;;;;;2077325;28;20202;-64
2023/03/12 04:16:43;;;;;;;3.45;1.70;;;1.90;99.90;;;;;;2074082;28;20213;-65
2023/03/12 04:17:48;;;;;;;1.52;1.30;;;1.90;99.90;;;;;;2077133;28;20239;-63
2023/03/12 04:18:54;;;;;;;2.17;1.20;;;1.90;99.90;;;;;;2077262;28;20182;-65
2023/03/12 04:19:59;;;;;;;2.38;1.50;;;2.00;99.90;;;;;;2074340;28;20564;-64
2023/03/12 04:21:08;;;;;;;1.48;1.23;;;2.00;99.90;;;;;;2077419;28;20210;-63
2023/03/12 04:22:09;;;;;;;1.60;1.17;;;2.10;99.90;;;;;;2077456;28;20285;-63
2023/03/12 04:23:14;;;;;;;2.22;1.40;;;2.20;99.90;;;;;;2074125;28;20826;-64
2023/03/12 04:24:20;;;;;;;1.77;1.30;;;2.30;99.90;;;;;;2077404;28;20199;-64
2023/03/12 04:25:21;;;;;;;1.93;1.33;;;2.50;99.90;;;;;;2077478;28;20249;-63
2023/03/12 04:26:26;;;;;;;1.60;1.30;;;2.50;99.90;;;;;;2077885;28;20218;-64
2023/03/12 04:27:33;;;;;;;3.45;1.20;;;2.60;99.90;;;;;;2078047;28;20275;-63
2023/03/12 04:28:37;;;;;;;1.30;1.20;;;2.80;99.90;;;;;;2077726;28;20477;-63
2023/03/12 04:29:44;;;;;;;1.30;1.20;;;2.90;99.90;;;;;;2077302;28;20279;-63
2023/03/12 04:31:02;;;;;;;1.40;1.30;;;2.90;99.90;;;;;;2077054;28;20211;-63
2023/03/12 04:32:05;;;;;;;2.05;1.10;;;3.00;99.90;;;;;;2072830;28;20207;-64
2023/03/12 04:33:09;;;;;;;1.30;1.20;;;3.00;99.90;;;;;;2076607;28;20203;-64
2023/03/12 04:34:15;;;;;;;1.33;1.17;;;3.10;99.90;;;;;;2077334;28;20203;-63
2023/03/12 04:35:20;;;;;;;1.10;1.00;;;3.10;99.90;;;;;;2073559;28;20175;-64
2023/03/12 04:36:26;;;;;;;1.48;1.27;;;3.20;99.90;;;;;;2077268;28;20307;-64
2023/03/12 04:37:33;;;;;;;1.50;1.23;;;3.20;99.90;;;;;;2076428;28;20313;-64
2023/03/12 04:38:37;;;;;;;2.28;1.58;;;3.10;99.90;;;;;;2073178;28;20350;-64
2023/03/12 04:39:44;;;;;;;1.60;1.23;;;3.20;99.90;;;;;;2077105;28;20181;-65
2023/03/12 04:41:08;;;;;;;1.63;1.23;;;3.20;99.90;;;;;;2076609;28;20192;-64
2023/03/12 04:42:10;;;;;;;2.08;1.20;;;3.30;99.90;;;;;;2075201;28;20286;-64
2023/03/12 04:43:14;;;;;;;1.15;0.98;;;3.40;99.90;;;;;;2077337;28;20208;-64
2023/03/12 04:44:20;;;;;;;1.58;1.20;;;3.40;99.90;;;;;;2075808;28;20188;-64
2023/03/12 04:45:25;;;;;;;1.02;0.93;;;3.40;99.90;;;;;;2077665;28;20211;-64
2023/03/12 04:46:31;;;;;;;1.20;1.00;;;3.40;99.90;;;;;;2077361;28;20200;-64
2023/03/12 04:47:36;;;;;;;1.70;1.13;;;3.50;99.90;;;;;;2076929;28;20199;-64
2023/03/12 04:48:37;;;;;;;1.73;1.20;;;3.40;99.90;;;;;;2077074;28;20200;-63
2023/03/12 04:49:42;;;;;;;1.65;1.30;;;3.50;99.90;;;;;;2077128;28;20283;-64
2023/03/12 04:50:48;;;;;;;1.20;1.10;;;3.40;99.90;;;;;;2073969;28;20206;-65
2023/03/12 04:51:54;;;;;;;1.98;1.10;;;3.50;99.90;;;;;;2076866;28;20197;-63
2023/03/12 04:52:59;;;;;;;1.30;1.15;;;3.50;99.90;;;;;;2077092;28;20197;-63
2023/03/12 04:54:04;;;;;;;1.20;1.10;;;3.60;99.90;;;;;;2073737;28;20612;-64
2023/03/12 04:55:09;;;;;;;1.20;1.00;;;3.70;99.90;;;;;;2077059;28;20195;-63
2023/03/12 04:56:15;;;;;;;1.40;0.90;;;3.70;99.90;;;;;;2076909;28;20721;-65
2023/03/12 04:57:21;;;;;;;1.40;1.20;;;3.80;99.90;;;;;;2073683;28;20560;-64
2023/03/12 04:58:26;;;;;;;1.45;1.10;;;3.80;99.90;;;;;;2076742;28;20208;-63
2023/03/12 04:59:31;;;;;;;1.38;0.90;;;3.90;99.90;;;;;;2077056;28;20181;-63
2023/03/12 05:00:39;;;;;;;2.17;1.13;;;3.80;99.90;;;;;;2073663;28;20242;-64
2023/03/12 05:01:43;;;;;;;3.55;1.13;;;3.90;99.90;;;;;;2076924;28;20189;-64
2023/03/12 05:02:49;;;;;;;1.10;1.00;;;3.90;99.90;;;;;;2077255;28;20223;-64
2023/03/12 05:03:54;;;;;;;0.80;0.80;;;3.70;99.90;;;;;;2073899;28;20653;-64
2023/03/12 05:05:00;;;;;;;1.52;0.95;;;3.70;99.90;;;;;;2077024;28;20189;-63
2023/03/12 05:06:04;;;;;;;0.70;0.70;;;3.70;99.90;;;;;;2076833;28;20188;-64
2023/03/12 05:07:09;;;;;;;0.90;0.70;;;3.70;99.90;;;;;;2073550;28;20682;-64
2023/03/12 05:08:15;;;;;;;2.13;0.70;;;3.70;99.90;;;;;;2076605;28;20188;-65
2023/03/12 05:09:20;;;;;;;1.00;0.80;;;3.70;99.90;;;;;;2076914;28;20186;-64
2023/03/12 05:10:26;;;;;;;1.85;1.02;;;3.70;99.90;;;;;;2073584;28;20188;-64
2023/03/12 05:11:31;;;;;;;1.05;0.80;;;3.80;99.90;;;;;;2076873;28;20645;-65
2023/03/12 05:12:37;;;;;;;0.60;0.60;;;3.90;99.90;;;;;;2075190;28;20365;-65
2023/03/12 05:13:42;;;;;;;1.08;0.70;;;3.90;99.90;;;;;;2074182;28;20231;-65
2023/03/12 05:14:48;;;;;;;1.65;0.80;;;3.90;99.90;;;;;;2077317;28;20195;-63
2023/03/12 05:15:53;;;;;;;1.83;0.77;;;3.90;99.90;;;;;;2077323;28;20216;-65
2023/03/12 05:16:58;;;;;;;0.70;0.70;;;3.80;99.90;;;;;;2072951;28;20225;-65
2023/03/12 05:18:04;;;;;;;0.75;0.75;;;3.90;99.90;;;;;;2076270;28;20749;-65
2023/03/12 05:19:09;;;;;;;1.38;0.75;;;3.90;99.90;;;;;;2076960;28;20182;-64
2023/03/12 05:20:16;;;;;;;1.48;0.80;;;3.90;99.90;;;;;;2073846;28;20247;-64
2023/03/12 05:21:22;;;;;;;1.00;0.90;;;3.90;99.90;;;;;;2076786;28;20211;-64
2023/03/12 05:22:27;;;;;;;0.80;0.80;;;3.90;99.90;;;;;;2070986;28;20209;-63
2023/03/12 05:23:33;;;;;;;0.80;0.77;;;3.90;99.90;;;;;;2069841;28;20185;-65
2023/03/12 05:24:38;;;;;;;1.15;0.98;;;3.80;99.90;;;;;;2075719;28;20185;-65
2023/03/12 05:25:44;;;;;;;0.98;0.80;;;3.70;99.90;;;;;;2077187;28;20827;-65
2023/03/12 05:26:49;;;;;;;0.70;0.70;;;3.60;99.90;;;;;;2074730;28;20572;-65
2023/03/12 05:27:55;;;;;;;0.90;0.70;;;3.60;99.90;;;;;;2077166;28;20262;-64
2023/03/12 05:29:01;;;;;;;0.88;0.80;;;3.60;99.90;;;;;;2077041;28;20184;-64
2023/03/12 05:30:06;;;;;;;0.98;0.98;;;3.60;99.90;;;;;;2076772;28;20188;-64
2023/03/12 05:31:11;;;;;;;0.40;0.40;;;3.50;99.90;;;;;;2076650;28;20192;-64
2023/03/12 05:32:15;;;;;;;1.02;0.95;;;3.50;99.90;;;;;;2076883;28;20224;-64
2023/03/12 05:33:20;;;;;;;0.47;0.47;;;3.50;99.90;;;;;;2072970;28;20211;-64
2023/03/12 05:34:27;;;;;;;0.60;0.60;;;3.50;99.90;;;;;;2076197;28;20195;-64
2023/03/12 05:35:31;;;;;;;0.50;0.50;;;3.50;99.90;;;;;;2076707;28;20186;-64
2023/03/12 05:36:36;;;;;;;0.77;0.60;;;3.50;99.90;;;;;;2073581;28;20677;-63
2023/03/12 05:37:42;;;;;;;0.40;0.40;;;3.60;99.90;;;;;;2076561;28;20197;-63
2023/03/12 05:38:47;;;;;;;0.40;0.40;;;3.70;99.90;;;;;;2076735;28;20196;-64
2023/03/12 05:39:53;;;;;;;0.60;0.60;;;3.70;99.90;;;;;;2073704;28;20564;-64
2023/03/12 05:40:59;;;;;;;1.00;1.00;;;3.80;99.90;;;;;;2076749;28;20189;-64
2023/03/12 05:42:04;;;;;;;0.47;0.47;;;3.80;99.90;;;;;;2079762;28;20201;-63
2023/03/12 05:43:09;;;;;;;1.17;0.68;;;3.90;99.90;;;;;;2076823;28;20195;-64
2023/03/12 05:44:16;;;;;;;0.80;0.70;;;3.90;99.90;;;;;;2076673;28;20581;-64
2023/03/12 05:45:20;;;;;;;0.60;0.60;;;4.00;99.90;;;;;;2076736;28;20194;-63
2023/03/12 05:46:26;;;;;;;1.20;0.95;;;3.90;99.90;;;;;;2077165;28;20259;-63
2023/03/12 05:47:31;;;;;;;0.40;0.40;;;3.80;99.90;;;;;;2077163;28;20212;-63
2023/03/12 05:48:37;;;;;;;0.65;0.65;;;3.80;99.90;;;;;;2076998;28;20276;-64
2023/03/12 05:49:43;;;;;;;0.60;0.60;;;3.80;99.90;;;;;;2076700;28;20274;-63
2023/03/12 05:50:48;;;;;;;2.10;0.50;;;3.80;99.90;;;;;;2076566;28;20287;-63
2023/03/12 05:51:54;;;;;;;0.60;0.60;;;3.80;99.90;;;;;;2076545;28;20192;-64